Porter, Minnesota
Current Conditions -  °F | °C
As of 5:54 AM on Friday 31 Oct 2014 (Local Time) from KCNB Reporting Station
Clear Clear  
Wind Chill: 13°   Ceiling: Unl
Heat Index: 21°   Visibility: 10mi
Dew Point: 20°   Wind: 7mph
Humidity: 95%   Direction: 320°NW
Pressure: 30.58"   Gusts: NA
Location:  44.64°N, 96.17°W
Report Text: KCNB 311054Z AUTO 32006KT 10SM CLR M06/M07 A3058 RMK AO2 T10591066
Loading
Personal Weather Stations






























Interactive Weather Map
Tropical Storm Tracking
New forecast layout! Learn more

10-Day Weather Forecast

Advertisements
Track Severe Weather on mobile